sensor_id;sensor_type;location;lat;lon;timestamp;pressure;altitude;pressure_sealevel;temperature;humidity
29549;BME280;16487;53.094;8.800;2022-10-18T00:00:21;103886.97;;;15.03;69.94
29549;BME280;16487;53.094;8.800;2022-10-18T00:02:48;103912.28;;;15.10;69.48
29549;BME280;16487;53.094;8.800;2022-10-18T00:05:15;103941.16;;;15.10;69.16
29549;BME280;16487;53.094;8.800;2022-10-18T00:07:43;103959.66;;;15.11;68.91
29549;BME280;16487;53.094;8.800;2022-10-18T00:10:10;103977.28;;;15.05;68.74
29549;BME280;16487;53.094;8.800;2022-10-18T00:12:37;103986.09;;;15.03;68.46
29549;BME280;16487;53.094;8.800;2022-10-18T00:15:07;104002.94;;;15.03;68.16
29549;BME280;16487;53.094;8.800;2022-10-18T00:17:35;104022.22;;;15.01;67.93
29549;BME280;16487;53.094;8.800;2022-10-18T00:20:04;104036.28;;;15.01;67.62
29549;BME280;16487;53.094;8.800;2022-10-18T00:22:33;104049.53;;;15.04;67.33
29549;BME280;16487;53.094;8.800;2022-10-18T00:25:00;104067.22;;;15.08;67.05
29549;BME280;16487;53.094;8.800;2022-10-18T00:27:28;104076.81;;;15.07;66.76
29549;BME280;16487;53.094;8.800;2022-10-18T00:29:55;104089.69;;;15.08;66.52
29549;BME280;16487;53.094;8.800;2022-10-18T00:32:36;104101.72;;;15.09;66.30
29549;BME280;16487;53.094;8.800;2022-10-18T00:35:06;104104.09;;;15.03;66.15
29549;BME280;16487;53.094;8.800;2022-10-18T00:41:38;104118.47;;;14.91;65.88
29549;BME280;16487;53.094;8.800;2022-10-18T00:47:13;104138.03;;;14.80;65.43
29549;BME280;16487;53.094;8.800;2022-10-18T00:49:45;104149.28;;;14.80;65.11
29549;BME280;16487;53.094;8.800;2022-10-18T00:52:16;104154.09;;;14.76;64.51
29549;BME280;16487;53.094;8.800;2022-10-18T00:54:45;104164.91;;;14.74;64.05
29549;BME280;16487;53.094;8.800;2022-10-18T00:57:13;104178.50;;;14.69;63.69
29549;BME280;16487;53.094;8.800;2022-10-18T00:59:41;104190.94;;;14.68;63.39
29549;BME280;16487;53.094;8.800;2022-10-18T01:02:10;104196.91;;;14.63;63.27
29549;BME280;16487;53.094;8.800;2022-10-18T01:04:37;104208.50;;;14.58;63.14
29549;BME280;16487;53.094;8.800;2022-10-18T01:07:11;104219.34;;;14.59;62.96
29549;BME280;16487;53.094;8.800;2022-10-18T01:09:46;104233.75;;;14.61;62.72
29549;BME280;16487;53.094;8.800;2022-10-18T01:12:19;104253.06;;;14.63;62.62
29549;BME280;16487;53.094;8.800;2022-10-18T01:14:52;104255.47;;;14.64;62.66
29549;BME280;16487;53.094;8.800;2022-10-18T01:17:26;104270.63;;;14.56;62.63
29549;BME280;16487;53.094;8.800;2022-10-18T01:20:09;104290.75;;;14.62;62.65
29549;BME280;16487;53.094;8.800;2022-10-18T01:22:47;104295.44;;;14.51;62.82
29549;BME280;16487;53.094;8.800;2022-10-18T01:25:26;104307.94;;;14.57;62.90
29549;BME280;16487;53.094;8.800;2022-10-18T01:27:58;104320.41;;;14.59;62.83
29549;BME280;16487;53.094;8.800;2022-10-18T01:30:51;104336.41;;;14.55;62.78
29549;BME280;16487;53.094;8.800;2022-10-18T01:33:27;104337.22;;;14.56;62.73
29549;BME280;16487;53.094;8.800;2022-10-18T01:35:59;104338.81;;;14.57;62.66
29549;BME280;16487;53.094;8.800;2022-10-18T01:38:31;104348.06;;;14.57;62.60
29549;BME280;16487;53.094;8.800;2022-10-18T01:41:00;104361.25;;;14.53;62.64
29549;BME280;16487;53.094;8.800;2022-10-18T01:43:29;104367.66;;;14.54;62.55
29549;BME280;16487;53.094;8.800;2022-10-18T01:45:59;104373.28;;;14.54;62.67
29549;BME280;16487;53.094;8.800;2022-10-18T01:48:27;104378.56;;;14.59;62.46
29549;BME280;16487;53.094;8.800;2022-10-18T01:50:55;104386.06;;;14.51;62.47
29549;BME280;16487;53.094;8.800;2022-10-18T01:53:28;104407.75;;;14.51;62.47
29549;BME280;16487;53.094;8.800;2022-10-18T01:58:58;104419.81;;;14.55;62.26
29549;BME280;16487;53.094;8.800;2022-10-18T02:01:38;104433.84;;;14.55;62.14
29549;BME280;16487;53.094;8.800;2022-10-18T02:04:14;104448.66;;;14.52;62.11
29549;BME280;16487;53.094;8.800;2022-10-18T02:06:50;104451.03;;;14.50;62.05
29549;BME280;16487;53.094;8.800;2022-10-18T02:09:24;104465.06;;;14.50;62.18
29549;BME280;16487;53.094;8.800;2022-10-18T02:11:56;104467.00;;;14.46;62.16
29549;BME280;16487;53.094;8.800;2022-10-18T02:14:24;104479.88;;;14.47;62.15
29549;BME280;16487;53.094;8.800;2022-10-18T02:16:55;104483.06;;;14.45;62.15
29549;BME280;16487;53.094;8.800;2022-10-18T02:19:29;104499.09;;;14.45;62.12
29549;BME280;16487;53.094;8.800;2022-10-18T02:21:58;104495.47;;;14.44;62.08
29549;BME280;16487;53.094;8.800;2022-10-18T02:24:32;104503.09;;;14.44;62.08
29549;BME280;16487;53.094;8.800;2022-10-18T02:27:00;104512.63;;;14.39;62.04
29549;BME280;16487;53.094;8.800;2022-10-18T02:29:28;104516.66;;;14.38;62.01
29549;BME280;16487;53.094;8.800;2022-10-18T02:32:04;104515.81;;;14.38;61.98
29549;BME280;16487;53.094;8.800;2022-10-18T02:34:36;104519.84;;;14.37;62.00
29549;BME280;16487;53.094;8.800;2022-10-18T02:37:07;104491.31;;;14.35;61.31
29549;BME280;16487;53.094;8.800;2022-10-18T02:39:38;104507.72;;;14.33;61.29
29549;BME280;16487;53.094;8.800;2022-10-18T02:42:09;104522.16;;;14.31;61.29
29549;BME280;16487;53.094;8.800;2022-10-18T02:44:37;104542.63;;;14.32;61.36
29549;BME280;16487;53.094;8.800;2022-10-18T02:47:08;104555.00;;;14.31;61.38
29549;BME280;16487;53.094;8.800;2022-10-18T02:49:36;104572.66;;;14.31;61.36
29549;BME280;16487;53.094;8.800;2022-10-18T02:52:03;104577.41;;;14.27;61.38
29549;BME280;16487;53.094;8.800;2022-10-18T02:54:30;104570.63;;;14.28;61.37
29549;BME280;16487;53.094;8.800;2022-10-18T02:56:58;104576.59;;;14.27;61.36
29549;BME280;16487;53.094;8.800;2022-10-18T02:59:25;104588.09;;;14.22;61.37
29549;BME280;16487;53.094;8.800;2022-10-18T03:01:52;104585.28;;;14.22;61.33
29549;BME280;16487;53.094;8.800;2022-10-18T03:04:21;104594.91;;;14.21;61.25
29549;BME280;16487;53.094;8.800;2022-10-18T03:06:48;104607.00;;;14.25;61.16
29549;BME280;16487;53.094;8.800;2022-10-18T03:09:15;104616.31;;;14.29;61.06
29549;BME280;16487;53.094;8.800;2022-10-18T03:11:43;104616.75;;;14.31;61.00
29549;BME280;16487;53.094;8.800;2022-10-18T03:14:10;104623.13;;;14.28;60.87
29549;BME280;16487;53.094;8.800;2022-10-18T03:16:37;104626.06;;;14.35;60.82
29549;BME280;16487;53.094;8.800;2022-10-18T03:19:05;104627.34;;;14.41;60.77
29549;BME280;16487;53.094;8.800;2022-10-18T03:21:33;104646.47;;;14.32;60.80
29549;BME280;16487;53.094;8.800;2022-10-18T03:24:01;104643.22;;;14.30;60.80
29549;BME280;16487;53.094;8.800;2022-10-18T03:26:28;104639.59;;;14.29;60.83
29549;BME280;16487;53.094;8.800;2022-10-18T03:28:55;104639.06;;;14.24;60.85
29549;BME280;16487;53.094;8.800;2022-10-18T03:31:23;104635.47;;;14.23;60.83
29549;BME280;16487;53.094;8.800;2022-10-18T03:33:50;104641.94;;;14.27;60.78
29549;BME280;16487;53.094;8.800;2022-10-18T03:36:18;104639.06;;;14.24;60.82
29549;BME280;16487;53.094;8.800;2022-10-18T03:38:46;104634.88;;;14.14;60.86
29549;BME280;16487;53.094;8.800;2022-10-18T03:41:14;104627.50;;;14.06;60.95
29549;BME280;16487;53.094;8.800;2022-10-18T03:43:41;104629.22;;;14.11;60.89
29549;BME280;16487;53.094;8.800;2022-10-18T03:46:08;104629.06;;;14.04;60.95
29549;BME280;16487;53.094;8.800;2022-10-18T03:48:35;104630.69;;;14.05;60.92
29549;BME280;16487;53.094;8.800;2022-10-18T03:51:03;104630.69;;;14.05;60.88
29549;BME280;16487;53.094;8.800;2022-10-18T03:53:30;104617.28;;;13.95;60.94
29549;BME280;16487;53.094;8.800;2022-10-18T03:55:59;104606.50;;;13.97;60.92
29549;BME280;16487;53.094;8.800;2022-10-18T03:58:26;104616.16;;;13.99;60.86
29549;BME280;16487;53.094;8.800;2022-10-18T04:00:54;104613.00;;;14.01;60.82
29549;BME280;16487;53.094;8.800;2022-10-18T04:03:21;104613.28;;;13.96;60.81
29549;BME280;16487;53.094;8.800;2022-10-18T04:05:49;104626.06;;;13.93;60.76
29549;BME280;16487;53.094;8.800;2022-10-18T04:08:17;104639.34;;;13.96;60.69
29549;BME280;16487;53.094;8.800;2022-10-18T04:10:45;104638.53;;;13.96;60.67
29549;BME280;16487;53.094;8.800;2022-10-18T04:13:14;104648.88;;;13.92;60.67
29549;BME280;16487;53.094;8.800;2022-10-18T04:15:42;104657.75;;;13.94;60.74
29549;BME280;16487;53.094;8.800;2022-10-18T04:18:09;104668.06;;;13.90;60.73
29549;BME280;16487;53.094;8.800;2022-10-18T04:20:36;104673.69;;;13.90;60.72
29549;BME280;16487;53.094;8.800;2022-10-18T04:23:03;104678.63;;;13.96;60.66
29549;BME280;16487;53.094;8.800;2022-10-18T04:25:31;104687.47;;;13.98;60.62
29549;BME280;16487;53.094;8.800;2022-10-18T04:27:58;104698.69;;;13.98;60.59
29549;BME280;16487;53.094;8.800;2022-10-18T04:30:27;104695.81;;;13.95;60.60
29549;BME280;16487;53.094;8.800;2022-10-18T04:32:54;104705.91;;;13.99;60.55
29549;BME280;16487;53.094;8.800;2022-10-18T04:35:21;104707.50;;;13.97;60.54
29549;BME280;16487;53.094;8.800;2022-10-18T04:37:48;104713.09;;;13.97;60.55
29549;BME280;16487;53.094;8.800;2022-10-18T04:40:16;104716.81;;;14.01;60.49
29549;BME280;16487;53.094;8.800;2022-10-18T04:42:43;104739.66;;;14.03;60.48
29549;BME280;16487;53.094;8.800;2022-10-18T04:45:10;104738.88;;;14.02;60.45
29549;BME280;16487;53.094;8.800;2022-10-18T04:47:39;104728.28;;;13.96;60.47
29549;BME280;16487;53.094;8.800;2022-10-18T04:50:07;104732.00;;;14.00;60.46
29549;BME280;16487;53.094;8.800;2022-10-18T04:52:34;104731.69;;;14.05;60.41
29549;BME280;16487;53.094;8.800;2022-10-18T04:55:02;104735.31;;;14.05;60.37
29549;BME280;16487;53.094;8.800;2022-10-18T04:57:29;104748.66;;;14.12;60.31
29549;BME280;16487;53.094;8.800;2022-10-18T04:59:57;104760.56;;;14.05;60.30
29549;BME280;16487;53.094;8.800;2022-10-18T05:02:24;104769.00;;;14.05;60.29
29549;BME280;16487;53.094;8.800;2022-10-18T05:04:53;104771.19;;;14.15;60.21
29549;BME280;16487;53.094;8.800;2022-10-18T05:07:20;104770.59;;;14.06;60.22
29549;BME280;16487;53.094;8.800;2022-10-18T05:09:47;104772.63;;;14.06;60.22
29549;BME280;16487;53.094;8.800;2022-10-18T05:12:15;104782.78;;;14.14;60.16
29549;BME280;16487;53.094;8.800;2022-10-18T05:14:42;104786.41;;;14.14;60.15
29549;BME280;16487;53.094;8.800;2022-10-18T05:17:09;104791.34;;;14.02;60.19
29549;BME280;16487;53.094;8.800;2022-10-18T05:19:37;104811.97;;;14.09;60.13
29549;BME280;16487;53.094;8.800;2022-10-18T05:22:05;104808.41;;;14.12;60.09
29549;BME280;16487;53.094;8.800;2022-10-18T05:24:32;104804.03;;;14.15;60.06
29549;BME280;16487;53.094;8.800;2022-10-18T05:27:00;104816.84;;;14.12;60.05
29549;BME280;16487;53.094;8.800;2022-10-18T05:29:27;104811.00;;;14.02;60.12
29549;BME280;16487;53.094;8.800;2022-10-18T05:31:54;104829.19;;;14.08;60.10
29549;BME280;16487;53.094;8.800;2022-10-18T05:34:22;104838.00;;;14.10;60.06
29549;BME280;16487;53.094;8.800;2022-10-18T05:36:49;104848.81;;;14.08;60.07
29549;BME280;16487;53.094;8.800;2022-10-18T05:39:18;104840.59;;;13.99;60.12
29549;BME280;16487;53.094;8.800;2022-10-18T05:41:45;104859.16;;;14.04;60.09
29549;BME280;16487;53.094;8.800;2022-10-18T05:44:12;104855.50;;;14.03;60.11
29549;BME280;16487;53.094;8.800;2022-10-18T05:46:39;104864.84;;;14.07;60.08
29549;BME280;16487;53.094;8.800;2022-10-18T05:49:08;104880.84;;;14.07;60.08
29549;BME280;16487;53.094;8.800;2022-10-18T05:51:35;104870.66;;;13.99;60.12
29549;BME280;16487;53.094;8.800;2022-10-18T05:54:03;104883.50;;;14.00;60.10
29549;BME280;16487;53.094;8.800;2022-10-18T05:56:32;104881.13;;;14.02;60.08
29549;BME280;16487;53.094;8.800;2022-10-18T05:58:59;104891.91;;;14.00;60.10
29549;BME280;16487;53.094;8.800;2022-10-18T06:01:26;104910.94;;;13.91;60.13
29549;BME280;16487;53.094;8.800;2022-10-18T06:03:53;104909.41;;;13.93;60.12
29549;BME280;16487;53.094;8.800;2022-10-18T06:06:21;104914.19;;;13.93;60.13
29549;BME280;16487;53.094;8.800;2022-10-18T06:08:48;104919.78;;;13.93;60.14
29549;BME280;16487;53.094;8.800;2022-10-18T06:11:17;104926.84;;;14.02;60.08
29549;BME280;16487;53.094;8.800;2022-10-18T06:13:47;104927.84;;;13.94;60.13
29549;BME280;16487;53.094;8.800;2022-10-18T06:16:17;104930.47;;;13.87;60.15
29549;BME280;16487;53.094;8.800;2022-10-18T06:18:46;104943.06;;;13.93;60.13
29549;BME280;16487;53.094;8.800;2022-10-18T06:21:14;104944.59;;;13.91;60.13
29549;BME280;16487;53.094;8.800;2022-10-18T06:23:42;104952.72;;;13.96;60.10
29549;BME280;16487;53.094;8.800;2022-10-18T06:26:10;104959.81;;;13.90;60.11
29549;BME280;16487;53.094;8.800;2022-10-18T06:28:37;104971.03;;;13.90;60.11
29549;BME280;16487;53.094;8.800;2022-10-18T06:31:06;104981.50;;;13.93;60.09
29549;BME280;16487;53.094;8.800;2022-10-18T06:33:34;104991.94;;;13.92;60.09
29549;BME280;16487;53.094;8.800;2022-10-18T06:36:04;104999.81;;;13.87;60.11
29549;BME280;16487;53.094;8.800;2022-10-18T06:38:31;105007.13;;;13.91;60.11
29549;BME280;16487;53.094;8.800;2022-10-18T06:40:59;105024.22;;;14.02;60.03
29549;BME280;16487;53.094;8.800;2022-10-18T06:43:26;105014.44;;;13.96;60.06
29549;BME280;16487;53.094;8.800;2022-10-18T06:45:54;105032.75;;;13.90;60.07
29549;BME280;16487;53.094;8.800;2022-10-18T06:48:23;105054.63;;;13.84;60.10
29549;BME280;16487;53.094;8.800;2022-10-18T06:50:52;105047.41;;;13.83;60.09
29549;BME280;16487;53.094;8.800;2022-10-18T06:53:19;105052.84;;;13.92;60.02
29549;BME280;16487;53.094;8.800;2022-10-18T06:55:47;105064.13;;;13.79;60.07
29549;BME280;16487;53.094;8.800;2022-10-18T06:58:14;105071.00;;;13.82;60.03
29549;BME280;16487;53.094;8.800;2022-10-18T07:00:41;105091.19;;;13.88;59.98
29549;BME280;16487;53.094;8.800;2022-10-18T07:03:09;105078.88;;;13.76;60.00
29549;BME280;16487;53.094;8.800;2022-10-18T07:05:37;105087.81;;;13.82;59.96
29549;BME280;16487;53.094;8.800;2022-10-18T07:08:05;105103.97;;;13.85;59.94
29549;BME280;16487;53.094;8.800;2022-10-18T07:10:32;105115.50;;;13.83;59.90
29549;BME280;16487;53.094;8.800;2022-10-18T07:13:00;105128.59;;;13.92;59.85
29549;BME280;16487;53.094;8.800;2022-10-18T07:15:47;105142.59;;;13.92;59.83
29549;BME280;16487;53.094;8.800;2022-10-18T07:18:14;105164.50;;;13.86;59.82
29549;BME280;16487;53.094;8.800;2022-10-18T07:20:43;105176.78;;;13.82;59.83
29549;BME280;16487;53.094;8.800;2022-10-18T07:23:10;105172.13;;;13.73;59.85
29549;BME280;16487;53.094;8.800;2022-10-18T07:25:37;105179.53;;;13.94;59.75
29549;BME280;16487;53.094;8.800;2022-10-18T07:28:05;105198.91;;;13.99;59.69
29549;BME280;16487;53.094;8.800;2022-10-18T07:30:33;105210.59;;;14.01;59.69
29549;BME280;16487;53.094;8.800;2022-10-18T07:33:00;105221.81;;;14.01;59.67
29549;BME280;16487;53.094;8.800;2022-10-18T07:35:27;105215.09;;;13.90;59.64
29549;BME280;16487;53.094;8.800;2022-10-18T07:37:56;105238.50;;;13.82;59.69
29549;BME280;16487;53.094;8.800;2022-10-18T07:40:23;105238.97;;;13.71;71.48
29549;BME280;16487;53.094;8.800;2022-10-18T07:42:51;105245.06;;;13.73;71.42
29549;BME280;16487;53.094;8.800;2022-10-18T07:45:18;105255.13;;;13.74;71.43
29549;BME280;16487;53.094;8.800;2022-10-18T07:47:45;105278.34;;;13.75;71.37
29549;BME280;16487;53.094;8.800;2022-10-18T07:50:13;105278.34;;;13.75;71.36
29549;BME280;16487;53.094;8.800;2022-10-18T07:52:40;105285.50;;;13.72;71.41
29549;BME280;16487;53.094;8.800;2022-10-18T07:55:09;105312.44;;;13.89;71.20
29549;BME280;16487;53.094;8.800;2022-10-18T07:57:36;105321.16;;;13.72;71.36
29549;BME280;16487;53.094;8.800;2022-10-18T08:00:04;105338.06;;;13.88;71.38
29549;BME280;16487;53.094;8.800;2022-10-18T08:02:37;105350.22;;;13.92;71.34
29549;BME280;16487;53.094;8.800;2022-10-18T08:05:05;105351.41;;;13.78;71.51
29549;BME280;16487;53.094;8.800;2022-10-18T08:07:32;105362.16;;;13.89;71.33
29549;BME280;16487;53.094;8.800;2022-10-18T08:09:59;105342.53;;;13.64;71.64
29549;BME280;16487;53.094;8.800;2022-10-18T08:12:28;105364.97;;;13.76;71.46
29549;BME280;16487;53.094;8.800;2022-10-18T08:14:55;105376.19;;;13.76;71.45
29549;BME280;16487;53.094;8.800;2022-10-18T08:17:23;105382.34;;;13.82;71.36
29549;BME280;16487;53.094;8.800;2022-10-18T08:19:50;105370.59;;;13.76;71.47
29549;BME280;16487;53.094;8.800;2022-10-18T08:22:37;105382.25;;;13.78;71.46
29549;BME280;16487;53.094;8.800;2022-10-18T08:25:06;105388.56;;;13.75;71.39
29549;BME280;16487;53.094;8.800;2022-10-18T08:27:35;105401.78;;;13.75;71.38
29549;BME280;16487;53.094;8.800;2022-10-18T08:30:02;105420.34;;;13.92;71.19
29549;BME280;16487;53.094;8.800;2022-10-18T08:32:29;105430.41;;;13.93;71.21
29549;BME280;16487;53.094;8.800;2022-10-18T08:34:57;105440.81;;;13.92;71.26
29549;BME280;16487;53.094;8.800;2022-10-18T08:37:24;105454.72;;;14.01;71.25
29549;BME280;16487;53.094;8.800;2022-10-18T08:39:52;105480.88;;;14.17;71.06
29549;BME280;16487;53.094;8.800;2022-10-18T08:42:39;105496.78;;;14.37;70.92
29549;BME280;16487;53.094;8.800;2022-10-18T08:45:11;105529.09;;;14.70;70.59
29549;BME280;16487;53.094;8.800;2022-10-18T08:47:57;105546.50;;;14.88;70.56
29549;BME280;16487;53.094;8.800;2022-10-18T08:50:27;105536.38;;;14.71;71.12
29549;BME280;16487;53.094;8.800;2022-10-18T08:53:02;105555.69;;;14.73;71.46
29549;BME280;16487;53.094;8.800;2022-10-18T08:55:37;105535.34;;;14.64;72.00
29549;BME280;16487;53.094;8.800;2022-10-18T08:58:15;105535.34;;;14.64;72.41
29549;BME280;16487;53.094;8.800;2022-10-18T09:00:47;105530.44;;;14.61;73.00
29549;BME280;16487;53.094;8.800;2022-10-18T09:03:25;105532.03;;;14.74;73.39
29549;BME280;16487;53.094;8.800;2022-10-18T09:06:03;105514.00;;;14.75;74.18
29549;BME280;16487;53.094;8.800;2022-10-18T09:08:42;105463.91;;;14.65;75.31
29549;BME280;16487;53.094;8.800;2022-10-18T09:11:23;105397.63;;;14.76;76.21
29549;BME280;16487;53.094;8.800;2022-10-18T09:14:14;105305.28;;;14.59;77.82
29549;BME280;16487;53.094;8.800;2022-10-18T09:16:51;105206.25;;;14.62;79.10
29549;BME280;16487;53.094;8.800;2022-10-18T09:19:40;105056.13;;;14.59;80.73
29549;BME280;16487;53.094;8.800;2022-10-18T09:22:12;104937.97;;;14.68;82.51
29549;BME280;16487;53.094;8.800;2022-10-18T09:24:44;104819.69;;;14.73;84.77
29549;BME280;16487;53.094;8.800;2022-10-18T09:27:15;104673.97;;;14.94;87.06
29549;BME280;16487;53.094;8.800;2022-10-18T09:29:56;104453.19;;;14.93;91.89
29549;BME280;16487;53.094;8.800;2022-10-18T09:32:43;104246.22;;;15.04;99.87
29549;BME280;16487;53.094;8.800;2022-10-18T09:35:16;104123.72;;;14.93;100.00
29549;BME280;16487;53.094;8.800;2022-10-18T09:37:44;104051.91;;;14.99;100.00
29549;BME280;16487;53.094;8.800;2022-10-18T09:40:16;104011.75;;;14.98;100.00
29549;BME280;16487;53.094;8.800;2022-10-18T09:42:52;103957.63;;;15.15;100.00
29549;BME280;16487;53.094;8.800;2022-10-18T09:45:26;103944.03;;;15.28;100.00
29549;BME280;16487;53.094;8.800;2022-10-18T09:48:01;103901.47;;;15.29;100.00
29549;BME280;16487;53.094;8.800;2022-10-18T09:50:34;103865.75;;;15.37;100.00
29549;BME280;16487;53.094;8.800;2022-10-18T09:53:12;103828.38;;;15.36;100.00
29549;BME280;16487;53.094;8.800;2022-10-18T09:55:54;103791.06;;;15.53;100.00
29549;BME280;16487;53.094;8.800;2022-10-18T09:58:27;103745.25;;;15.70;100.00
29549;BME280;16487;53.094;8.800;2022-10-18T10:01:01;103710.41;;;16.30;100.00
29549;BME280;16487;53.094;8.800;2022-10-18T10:03:28;103676.16;;;18.31;100.00
29549;BME280;16487;53.094;8.800;2022-10-18T10:06:20;103510.09;;;19.47;100.00
29549;BME280;16487;53.094;8.800;2022-10-18T10:08:53;103214.19;;;20.07;100.00
29549;BME280;16487;53.094;8.800;2022-10-18T10:11:32;102899.88;;;19.94;100.00
29549;BME280;16487;53.094;8.800;2022-10-18T10:14:17;102786.56;;;20.41;100.00
29549;BME280;16487;53.094;8.800;2022-10-18T10:16:52;102727.00;;;20.54;100.00
29549;BME280;16487;53.094;8.800;2022-10-18T10:19:23;102713.25;;;20.43;100.00
29549;BME280;16487;53.094;8.800;2022-10-18T10:21:54;102721.16;;;20.05;100.00
29549;BME280;16487;53.094;8.800;2022-10-18T10:24:27;102717.22;;;20.55;100.00
29549;BME280;16487;53.094;8.800;2022-10-18T10:26:59;102710.59;;;20.05;100.00
29549;BME280;16487;53.094;8.800;2022-10-18T10:29:56;102720.66;;;19.63;100.00
29549;BME280;16487;53.094;8.800;2022-10-18T10:32:40;102744.78;;;19.55;100.00
29549;BME280;16487;53.094;8.800;2022-10-18T10:35:30;102735.41;;;19.80;100.00
29549;BME280;16487;53.094;8.800;2022-10-18T10:38:22;102759.19;;;19.10;100.00
29549;BME280;16487;53.094;8.800;2022-10-18T10:40:50;102781.59;;;18.80;100.00
29549;BME280;16487;53.094;8.800;2022-10-18T10:43:21;102823.00;;;18.45;100.00
29549;BME280;16487;53.094;8.800;2022-10-18T10:46:09;102842.59;;;18.65;100.00
29549;BME280;16487;53.094;8.800;2022-10-18T10:48:47;102832.66;;;18.32;100.00
29549;BME280;16487;53.094;8.800;2022-10-18T10:51:18;102832.09;;;18.65;100.00
29549;BME280;16487;53.094;8.800;2022-10-18T10:53:58;102834.47;;;18.79;100.00
29549;BME280;16487;53.094;8.800;2022-10-18T10:56:28;102821.41;;;19.23;100.00
29549;BME280;16487;53.094;8.800;2022-10-18T10:58:59;102811.75;;;18.70;100.00
29549;BME280;16487;53.094;8.800;2022-10-18T11:01:30;102801.28;;;19.46;100.00
29549;BME280;16487;53.094;8.800;2022-10-18T11:04:00;102781.06;;;19.69;100.00
29549;BME280;16487;53.094;8.800;2022-10-18T11:06:41;102741.22;;;19.98;100.00
29549;BME280;16487;53.094;8.800;2022-10-18T11:09:25;102750.06;;;19.06;100.00
29549;BME280;16487;53.094;8.800;2022-10-18T11:12:11;102772.63;;;19.57;100.00
29549;BME280;16487;53.094;8.800;2022-10-18T11:14:43;102753.19;;;20.45;100.00
29549;BME280;16487;53.094;8.800;2022-10-18T11:17:19;102731.19;;;21.28;100.00
29549;BME280;16487;53.094;8.800;2022-10-18T11:20:02;102724.97;;;21.97;100.00
29549;BME280;16487;53.094;8.800;2022-10-18T11:22:33;102702.84;;;21.37;100.00
29549;BME280;16487;53.094;8.800;2022-10-18T11:25:02;102715.03;;;21.74;100.00
29549;BME280;16487;53.094;8.800;2022-10-18T11:27:33;102704.34;;;22.47;100.00
29549;BME280;16487;53.094;8.800;2022-10-18T11:30:13;102703.19;;;20.91;100.00
29549;BME280;16487;53.094;8.800;2022-10-18T11:32:52;102710.88;;;21.39;100.00
29549;BME280;16487;53.094;8.800;2022-10-18T11:35:34;102724.38;;;19.94;100.00
29549;BME280;16487;53.094;8.800;2022-10-18T11:38:18;102743.25;;;18.54;100.00
29549;BME280;16487;53.094;8.800;2022-10-18T11:40:58;102743.78;;;19.24;100.00
29549;BME280;16487;53.094;8.800;2022-10-18T11:43:35;102723.03;;;20.51;100.00
29549;BME280;16487;53.094;8.800;2022-10-18T11:46:36;102720.88;;;20.64;100.00
29549;BME280;16487;53.094;8.800;2022-10-18T11:49:30;102696.41;;;21.55;100.00
29549;BME280;16487;53.094;8.800;2022-10-18T11:52:11;102702.00;;;19.87;100.00
29549;BME280;16487;53.094;8.800;2022-10-18T11:54:52;102714.63;;;19.95;100.00
29549;BME280;16487;53.094;8.800;2022-10-18T12:00:16;102700.81;;;21.56;100.00
29549;BME280;16487;53.094;8.800;2022-10-18T12:02:55;102697.19;;;21.55;100.00
29549;BME280;16487;53.094;8.800;2022-10-18T12:05:26;102697.69;;;21.54;100.00
29549;BME280;16487;53.094;8.800;2022-10-18T12:07:59;102699.56;;;20.50;100.00
29549;BME280;16487;53.094;8.800;2022-10-18T12:10:29;102719.84;;;19.16;100.00
29549;BME280;16487;53.094;8.800;2022-10-18T12:13:22;102713.03;;;20.37;100.00
29549;BME280;16487;53.094;8.800;2022-10-18T12:15:52;102699.56;;;21.48;100.00
29549;BME280;16487;53.094;8.800;2022-10-18T12:18:23;102704.16;;;20.97;100.00
29549;BME280;16487;53.094;8.800;2022-10-18T12:20:52;102701.56;;;20.72;100.00
29549;BME280;16487;53.094;8.800;2022-10-18T12:23:32;102712.16;;;21.65;100.00
29549;BME280;16487;53.094;8.800;2022-10-18T12:26:02;102699.84;;;21.32;100.00
29549;BME280;16487;53.094;8.800;2022-10-18T12:28:37;102688.38;;;21.90;100.00
29549;BME280;16487;53.094;8.800;2022-10-18T12:31:18;102688.03;;;22.06;100.00
29549;BME280;16487;53.094;8.800;2022-10-18T12:33:48;102684.94;;;20.00;100.00
29549;BME280;16487;53.094;8.800;2022-10-18T12:36:38;102693.84;;;20.72;100.00
29549;BME280;16487;53.094;8.800;2022-10-18T12:39:15;102688.22;;;20.90;100.00
29549;BME280;16487;53.094;8.800;2022-10-18T12:42:03;102691.63;;;21.07;100.00
29549;BME280;16487;53.094;8.800;2022-10-18T12:44:32;102700.53;;;21.81;100.00
29549;BME280;16487;53.094;8.800;2022-10-18T12:47:02;102697.59;;;21.00;100.00
29549;BME280;16487;53.094;8.800;2022-10-18T12:49:31;102692.59;;;21.49;100.00
29549;BME280;16487;53.094;8.800;2022-10-18T12:52:03;102703.34;;;21.72;100.00
29549;BME280;16487;53.094;8.800;2022-10-18T12:54:33;102706.94;;;20.17;100.00
29549;BME280;16487;53.094;8.800;2022-10-18T12:57:03;102721.91;;;18.78;100.00
29549;BME280;16487;53.094;8.800;2022-10-18T12:59:49;102718.00;;;19.34;100.00
29549;BME280;16487;53.094;8.800;2022-10-18T13:02:30;102718.56;;;20.41;100.00
29549;BME280;16487;53.094;8.800;2022-10-18T13:04:58;102696.66;;;21.12;100.00
29549;BME280;16487;53.094;8.800;2022-10-18T13:07:35;102692.00;;;21.90;100.00
29549;BME280;16487;53.094;8.800;2022-10-18T13:13:26;102689.00;;;21.48;100.00
29549;BME280;16487;53.094;8.800;2022-10-18T13:16:12;102689.72;;;21.13;100.00
29549;BME280;16487;53.094;8.800;2022-10-18T13:18:52;102687.59;;;21.71;100.00
29549;BME280;16487;53.094;8.800;2022-10-18T13:21:30;102694.94;;;21.23;100.00
29549;BME280;16487;53.094;8.800;2022-10-18T13:27:16;102697.50;;;22.03;100.00
29549;BME280;16487;53.094;8.800;2022-10-18T13:30:24;102684.31;;;20.97;100.00